sensor_id;sensor_type;location;lat;lon;timestamp;pressure;altitude;pressure_sealevel;temperature;humidity
12949;BME280;6539;49.476;8.484;2023-04-01T00:01:45;99037.59;;;11.86;71.52
12949;BME280;6539;49.476;8.484;2023-04-01T00:04:14;99031.97;;;11.89;71.44
12949;BME280;6539;49.476;8.484;2023-04-01T00:06:41;99033.75;;;11.83;71.96
12949;BME280;6539;49.476;8.484;2023-04-01T00:09:13;99029.22;;;11.89;71.65
12949;BME280;6539;49.476;8.484;2023-04-01T00:11:40;99025.31;;;11.99;71.32
12949;BME280;6539;49.476;8.484;2023-04-01T00:14:07;99019.19;;;11.95;70.90
12949;BME280;6539;49.476;8.484;2023-04-01T00:16:35;99024.03;;;11.91;70.82
12949;BME280;6539;49.476;8.484;2023-04-01T00:19:03;99030.78;;;11.90;70.81
12949;BME280;6539;49.476;8.484;2023-04-01T00:21:30;99024.81;;;11.92;70.86
12949;BME280;6539;49.476;8.484;2023-04-01T00:23:55;99010.28;;;11.91;70.53
12949;BME280;6539;49.476;8.484;2023-04-01T00:26:21;99017.66;;;11.94;70.53
12949;BME280;6539;49.476;8.484;2023-04-01T00:28:48;99022.84;;;11.92;70.58
12949;BME280;6539;49.476;8.484;2023-04-01T00:31:18;99016.44;;;11.95;70.44
12949;BME280;6539;49.476;8.484;2023-04-01T00:33:51;99017.78;;;11.91;70.30
12949;BME280;6539;49.476;8.484;2023-04-01T00:36:20;99015.97;;;11.97;69.91
12949;BME280;6539;49.476;8.484;2023-04-01T00:38:47;99016.75;;;11.97;69.67
12949;BME280;6539;49.476;8.484;2023-04-01T00:41:17;99021.03;;;11.98;69.38
12949;BME280;6539;49.476;8.484;2023-04-01T00:43:49;99017.69;;;12.03;68.51
12949;BME280;6539;49.476;8.484;2023-04-01T00:46:20;99020.50;;;12.12;67.60
12949;BME280;6539;49.476;8.484;2023-04-01T00:48:54;99022.50;;;12.12;67.60
12949;BME280;6539;49.476;8.484;2023-04-01T00:51:27;99015.59;;;12.07;67.60
12949;BME280;6539;49.476;8.484;2023-04-01T00:54:00;99018.03;;;12.05;67.65
12949;BME280;6539;49.476;8.484;2023-04-01T00:56:43;99009.78;;;12.05;67.30
12949;BME280;6539;49.476;8.484;2023-04-01T00:59:17;99002.19;;;12.09;66.95
12949;BME280;6539;49.476;8.484;2023-04-01T01:01:46;98999.16;;;11.95;67.45
12949;BME280;6539;49.476;8.484;2023-04-01T01:24:30;98993.09;;;12.00;66.03
12949;BME280;6539;49.476;8.484;2023-04-01T01:27:20;98990.19;;;12.03;65.88
12949;BME280;6539;49.476;8.484;2023-04-01T01:35:34;98995.13;;;12.08;64.77
12949;BME280;6539;49.476;8.484;2023-04-01T01:38:13;98983.97;;;12.12;64.84
12949;BME280;6539;49.476;8.484;2023-04-01T01:40:45;98985.66;;;12.09;65.03
12949;BME280;6539;49.476;8.484;2023-04-01T01:43:24;98982.91;;;12.09;64.83
12949;BME280;6539;49.476;8.484;2023-04-01T01:46:00;98975.25;;;12.04;64.92
12949;BME280;6539;49.476;8.484;2023-04-01T01:48:33;98970.38;;;12.08;64.96
12949;BME280;6539;49.476;8.484;2023-04-01T01:51:00;98974.53;;;12.13;64.72
12949;BME280;6539;49.476;8.484;2023-04-01T01:53:30;98978.47;;;12.12;64.26
12949;BME280;6539;49.476;8.484;2023-04-01T01:55:56;98978.94;;;12.10;64.60
12949;BME280;6539;49.476;8.484;2023-04-01T01:58:30;98981.44;;;12.17;64.21
12949;BME280;6539;49.476;8.484;2023-04-01T02:01:04;98979.13;;;12.16;64.17
12949;BME280;6539;49.476;8.484;2023-04-01T02:03:36;98979.13;;;12.16;63.86
12949;BME280;6539;49.476;8.484;2023-04-01T02:06:07;98979.88;;;12.16;63.87
12949;BME280;6539;49.476;8.484;2023-04-01T02:08:59;98987.81;;;12.14;64.07
12949;BME280;6539;49.476;8.484;2023-04-01T02:11:43;98980.50;;;12.11;64.07
12949;BME280;6539;49.476;8.484;2023-04-01T02:14:16;98987.50;;;12.12;64.40
12949;BME280;6539;49.476;8.484;2023-04-01T02:16:57;98986.72;;;12.12;64.20
12949;BME280;6539;49.476;8.484;2023-04-01T02:19:31;98981.13;;;12.15;64.36
12949;BME280;6539;49.476;8.484;2023-04-01T02:22:04;98984.63;;;12.16;64.51
12949;BME280;6539;49.476;8.484;2023-04-01T02:24:35;98980.81;;;12.13;64.33
12949;BME280;6539;49.476;8.484;2023-04-01T02:27:06;98984.50;;;12.19;64.38
12949;BME280;6539;49.476;8.484;2023-04-01T02:29:32;98990.31;;;12.21;64.43
12949;BME280;6539;49.476;8.484;2023-04-01T02:31:58;98984.50;;;12.19;64.51
12949;BME280;6539;49.476;8.484;2023-04-01T02:34:27;98986.53;;;12.28;64.33
12949;BME280;6539;49.476;8.484;2023-04-01T02:36:56;98989.75;;;12.27;64.20
12949;BME280;6539;49.476;8.484;2023-04-01T02:39:23;98985.13;;;12.23;64.04
12949;BME280;6539;49.476;8.484;2023-04-01T02:41:52;98993.38;;;12.23;64.46
12949;BME280;6539;49.476;8.484;2023-04-01T02:44:18;98989.69;;;12.17;64.08
12949;BME280;6539;49.476;8.484;2023-04-01T02:46:44;98992.44;;;12.17;64.57
12949;BME280;6539;49.476;8.484;2023-04-01T02:49:14;99002.56;;;12.20;64.92
12949;BME280;6539;49.476;8.484;2023-04-01T02:51:42;98985.38;;;12.16;65.21
12949;BME280;6539;49.476;8.484;2023-04-01T02:54:08;98991.03;;;12.13;65.43
12949;BME280;6539;49.476;8.484;2023-04-01T02:56:34;98996.16;;;12.02;66.28
12949;BME280;6539;49.476;8.484;2023-04-01T02:58:59;98987.91;;;12.02;66.98
12949;BME280;6539;49.476;8.484;2023-04-01T03:01:25;98991.22;;;11.97;66.85
12949;BME280;6539;49.476;8.484;2023-04-01T03:03:53;98990.72;;;11.89;67.18
12949;BME280;6539;49.476;8.484;2023-04-01T03:06:19;98990.41;;;11.87;67.87
12949;BME280;6539;49.476;8.484;2023-04-01T03:08:45;98988.53;;;11.84;67.79
12949;BME280;6539;49.476;8.484;2023-04-01T03:11:12;98998.41;;;11.94;67.57
12949;BME280;6539;49.476;8.484;2023-04-01T03:13:37;98988.59;;;11.93;67.38
12949;BME280;6539;49.476;8.484;2023-04-01T03:16:06;98994.13;;;11.93;67.12
12949;BME280;6539;49.476;8.484;2023-04-01T03:18:34;98998.97;;;11.89;67.62
12949;BME280;6539;49.476;8.484;2023-04-01T03:21:23;99004.47;;;11.89;68.27
12949;BME280;6539;49.476;8.484;2023-04-01T03:23:49;98985.53;;;11.91;68.22
12949;BME280;6539;49.476;8.484;2023-04-01T03:26:18;98989.31;;;11.85;68.12
12949;BME280;6539;49.476;8.484;2023-04-01T03:28:46;98989.88;;;11.80;68.61
12949;BME280;6539;49.476;8.484;2023-04-01T03:31:17;98990.66;;;11.80;68.85
12949;BME280;6539;49.476;8.484;2023-04-01T03:33:43;98984.53;;;11.76;69.07
12949;BME280;6539;49.476;8.484;2023-04-01T03:36:09;98992.22;;;11.81;69.41
12949;BME280;6539;49.476;8.484;2023-04-01T03:38:39;98990.66;;;11.80;69.00
12949;BME280;6539;49.476;8.484;2023-04-01T03:41:15;98984.19;;;11.74;69.21
12949;BME280;6539;49.476;8.484;2023-04-01T03:43:41;98989.25;;;11.76;69.46
12949;BME280;6539;49.476;8.484;2023-04-01T03:46:07;98984.66;;;11.73;69.48
12949;BME280;6539;49.476;8.484;2023-04-01T03:48:33;98983.13;;;11.72;69.28
12949;BME280;6539;49.476;8.484;2023-04-01T03:50:59;98982.34;;;11.71;69.59
12949;BME280;6539;49.476;8.484;2023-04-01T03:53:25;98987.31;;;11.64;69.32
12949;BME280;6539;49.476;8.484;2023-04-01T03:55:55;98982.22;;;11.75;68.80
12949;BME280;6539;49.476;8.484;2023-04-01T03:58:21;98975.63;;;11.72;68.72
12949;BME280;6539;49.476;8.484;2023-04-01T04:00:49;98982.66;;;11.73;69.12
12949;BME280;6539;49.476;8.484;2023-04-01T04:03:15;98972.31;;;11.77;68.40
12949;BME280;6539;49.476;8.484;2023-04-01T04:05:49;98979.72;;;11.68;68.82
12949;BME280;6539;49.476;8.484;2023-04-01T04:08:16;98975.00;;;11.68;68.73
12949;BME280;6539;49.476;8.484;2023-04-01T04:10:44;98970.13;;;11.72;68.78
12949;BME280;6539;49.476;8.484;2023-04-01T04:13:11;98969.72;;;11.61;68.64
12949;BME280;6539;49.476;8.484;2023-04-01T04:15:38;98971.13;;;11.66;68.57
12949;BME280;6539;49.476;8.484;2023-04-01T04:18:06;98976.09;;;11.71;68.58
12949;BME280;6539;49.476;8.484;2023-04-01T04:20:32;98964.97;;;11.74;67.92
12949;BME280;6539;49.476;8.484;2023-04-01T04:22:57;98985.75;;;11.75;67.04
12949;BME280;6539;49.476;8.484;2023-04-01T04:25:25;98982.53;;;11.77;66.84
12949;BME280;6539;49.476;8.484;2023-04-01T04:27:53;98970.22;;;11.81;67.11
12949;BME280;6539;49.476;8.484;2023-04-01T04:30:19;98978.25;;;11.76;67.13
12949;BME280;6539;49.476;8.484;2023-04-01T04:32:47;98972.56;;;11.70;67.46
12949;BME280;6539;49.476;8.484;2023-04-01T04:35:13;98975.06;;;11.77;67.24
12949;BME280;6539;49.476;8.484;2023-04-01T04:37:39;98966.50;;;11.75;66.81
12949;BME280;6539;49.476;8.484;2023-04-01T04:40:07;98962.06;;;11.78;66.71
12949;BME280;6539;49.476;8.484;2023-04-01T04:42:33;98973.06;;;11.78;66.85
12949;BME280;6539;49.476;8.484;2023-04-01T04:45:02;98973.28;;;11.83;66.58
12949;BME280;6539;49.476;8.484;2023-04-01T04:47:32;98972.31;;;11.77;67.83
12949;BME280;6539;49.476;8.484;2023-04-01T04:50:00;98981.78;;;11.76;68.09
12949;BME280;6539;49.476;8.484;2023-04-01T04:52:25;98981.47;;;11.74;68.95
12949;BME280;6539;49.476;8.484;2023-04-01T04:54:51;98983.25;;;11.68;69.59
12949;BME280;6539;49.476;8.484;2023-04-01T04:57:19;98978.97;;;11.55;70.28
12949;BME280;6539;49.476;8.484;2023-04-01T04:59:45;98979.06;;;11.64;70.73
12949;BME280;6539;49.476;8.484;2023-04-01T05:02:11;98979.75;;;11.55;70.65
12949;BME280;6539;49.476;8.484;2023-04-01T05:04:39;98980.84;;;11.58;70.65
12949;BME280;6539;49.476;8.484;2023-04-01T05:07:05;98994.69;;;11.54;71.20
12949;BME280;6539;49.476;8.484;2023-04-01T05:09:36;98983.69;;;11.54;71.26
12949;BME280;6539;49.476;8.484;2023-04-01T05:12:06;98981.94;;;11.60;71.71
12949;BME280;6539;49.476;8.484;2023-04-01T05:14:37;98989.41;;;11.60;71.37
12949;BME280;6539;49.476;8.484;2023-04-01T05:17:09;98975.66;;;11.60;71.72
12949;BME280;6539;49.476;8.484;2023-04-01T05:19:39;98983.06;;;11.50;71.72
12949;BME280;6539;49.476;8.484;2023-04-01T05:22:06;98986.28;;;11.48;71.79
12949;BME280;6539;49.476;8.484;2023-04-01T05:24:32;98983.38;;;11.52;71.93
12949;BME280;6539;49.476;8.484;2023-04-01T05:26:59;98978.59;;;11.43;72.26
12949;BME280;6539;49.476;8.484;2023-04-01T05:29:27;98976.94;;;11.46;72.24
12949;BME280;6539;49.476;8.484;2023-04-01T05:31:53;98974.81;;;11.50;72.28
12949;BME280;6539;49.476;8.484;2023-04-01T05:34:21;98970.28;;;11.56;72.00
12949;BME280;6539;49.476;8.484;2023-04-01T05:36:46;98964.53;;;11.63;71.42
12949;BME280;6539;49.476;8.484;2023-04-01T05:39:15;98971.38;;;11.59;71.72
12949;BME280;6539;49.476;8.484;2023-04-01T05:41:41;98969.25;;;11.63;71.86
12949;BME280;6539;49.476;8.484;2023-04-01T05:44:12;98965.25;;;11.55;72.17
12949;BME280;6539;49.476;8.484;2023-04-01T05:46:38;98968.13;;;11.51;72.11
12949;BME280;6539;49.476;8.484;2023-04-01T05:49:04;98972.72;;;11.54;72.01
12949;BME280;6539;49.476;8.484;2023-04-01T05:51:32;98952.72;;;11.54;72.08
12949;BME280;6539;49.476;8.484;2023-04-01T05:54:01;98960.69;;;11.61;71.85
12949;BME280;6539;49.476;8.484;2023-04-01T05:56:27;98962.81;;;11.57;72.23
12949;BME280;6539;49.476;8.484;2023-04-01T05:58:54;98965.69;;;11.53;72.43
12949;BME280;6539;49.476;8.484;2023-04-01T06:01:20;98966.97;;;11.61;71.92
12949;BME280;6539;49.476;8.484;2023-04-01T06:03:46;98962.13;;;11.65;71.70
12949;BME280;6539;49.476;8.484;2023-04-01T06:06:16;98960.50;;;11.68;71.53
12949;BME280;6539;49.476;8.484;2023-04-01T06:08:48;98947.69;;;11.74;71.49
12949;BME280;6539;49.476;8.484;2023-04-01T06:11:40;98961.13;;;11.72;71.63
12949;BME280;6539;49.476;8.484;2023-04-01T06:34:58;98961.94;;;11.60;71.67
12949;BME280;6539;49.476;8.484;2023-04-01T06:37:50;98959.19;;;11.60;71.45
12949;BME280;6539;49.476;8.484;2023-04-01T06:46:06;98950.88;;;11.50;71.31
12949;BME280;6539;49.476;8.484;2023-04-01T06:51:32;98955.34;;;11.57;71.24
12949;BME280;6539;49.476;8.484;2023-04-01T06:54:20;98942.81;;;11.56;71.12
12949;BME280;6539;49.476;8.484;2023-04-01T06:56:54;98949.63;;;11.51;71.57
12949;BME280;6539;49.476;8.484;2023-04-01T06:59:32;98958.22;;;11.54;71.27
12949;BME280;6539;49.476;8.484;2023-04-01T07:04:58;98959.28;;;11.56;71.50
12949;BME280;6539;49.476;8.484;2023-04-01T07:07:44;98961.03;;;11.63;71.55
12949;BME280;6539;49.476;8.484;2023-04-01T07:12:58;98967.59;;;11.65;71.33
12949;BME280;6539;49.476;8.484;2023-04-01T07:15:39;98964.00;;;11.68;71.32
12949;BME280;6539;49.476;8.484;2023-04-01T07:18:23;98959.91;;;11.73;71.01
12949;BME280;6539;49.476;8.484;2023-04-01T07:20:52;98976.31;;;11.64;71.75
12949;BME280;6539;49.476;8.484;2023-04-01T07:23:32;98979.38;;;11.66;71.86
12949;BME280;6539;49.476;8.484;2023-04-01T07:26:18;98973.09;;;11.65;71.91
12949;BME280;6539;49.476;8.484;2023-04-01T07:28:46;98972.34;;;11.65;72.26
12949;BME280;6539;49.476;8.484;2023-04-01T07:31:45;98965.78;;;11.62;72.47
12949;BME280;6539;49.476;8.484;2023-04-01T07:34:31;98964.03;;;11.56;72.62
12949;BME280;6539;49.476;8.484;2023-04-01T07:37:18;98970.81;;;11.64;72.78
12949;BME280;6539;49.476;8.484;2023-04-01T07:40:14;98972.59;;;11.58;73.25
12949;BME280;6539;49.476;8.484;2023-04-01T07:45:47;98966.34;;;11.57;73.42
12949;BME280;6539;49.476;8.484;2023-04-01T07:54:18;98979.88;;;11.51;73.79
12949;BME280;6539;49.476;8.484;2023-04-01T07:57:00;98980.63;;;11.52;74.02
12949;BME280;6539;49.476;8.484;2023-04-01T08:00:02;98988.56;;;11.50;74.21
12949;BME280;6539;49.476;8.484;2023-04-01T08:05:53;98976.31;;;11.64;74.14
12949;BME280;6539;49.476;8.484;2023-04-01T08:21:52;98996.28;;;11.77;76.18
12949;BME280;6539;49.476;8.484;2023-04-01T08:24:45;98983.13;;;11.72;76.89
12949;BME280;6539;49.476;8.484;2023-04-01T08:27:40;98984.78;;;11.69;76.81
12949;BME280;6539;49.476;8.484;2023-04-01T08:33:24;98990.91;;;11.73;77.47
12949;BME280;6539;49.476;8.484;2023-04-01T08:36:19;98988.75;;;11.68;78.04
12949;BME280;6539;49.476;8.484;2023-04-01T08:45:06;98995.44;;;11.67;78.53
12949;BME280;6539;49.476;8.484;2023-04-01T08:54:08;98991.34;;;11.72;78.94
12949;BME280;6539;49.476;8.484;2023-04-01T08:56:57;98993.53;;;11.77;79.13
12949;BME280;6539;49.476;8.484;2023-04-01T09:05:39;99003.13;;;11.94;79.14
12949;BME280;6539;49.476;8.484;2023-04-01T09:14:48;99000.63;;;11.87;79.61
12949;BME280;6539;49.476;8.484;2023-04-01T09:24:13;99015.84;;;11.79;80.99
12949;BME280;6539;49.476;8.484;2023-04-01T09:27:09;99018.03;;;11.84;80.95
12949;BME280;6539;49.476;8.484;2023-04-01T09:44:59;99023.91;;;11.95;81.47
12949;BME280;6539;49.476;8.484;2023-04-01T10:02:02;99031.59;;;12.21;80.29
12949;BME280;6539;49.476;8.484;2023-04-01T10:36:59;99030.53;;;12.50;79.26
12949;BME280;6539;49.476;8.484;2023-04-01T10:40:12;99039.72;;;12.56;79.22
12949;BME280;6539;49.476;8.484;2023-04-01T10:43:05;99044.03;;;12.57;79.52
12949;BME280;6539;49.476;8.484;2023-04-01T10:46:18;99037.91;;;12.62;79.16
12949;BME280;6539;49.476;8.484;2023-04-01T11:22:01;99053.75;;;12.79;76.04
12949;BME280;6539;49.476;8.484;2023-04-01T11:28:16;99049.84;;;12.98;75.92
12949;BME280;6539;49.476;8.484;2023-04-01T11:45:23;99064.75;;;13.10;73.28
12949;BME280;6539;49.476;8.484;2023-04-01T11:48:38;99068.41;;;13.07;72.31
12949;BME280;6539;49.476;8.484;2023-04-01T11:54:53;99077.63;;;13.13;70.49
12949;BME280;6539;49.476;8.484;2023-04-01T12:12:40;99087.19;;;13.30;67.52
12949;BME280;6539;49.476;8.484;2023-04-01T12:15:27;99095.25;;;13.25;67.64
12949;BME280;6539;49.476;8.484;2023-04-01T12:30:04;99091.94;;;13.48;66.38
12949;BME280;6539;49.476;8.484;2023-04-01T12:32:57;99102.34;;;13.44;65.80
12949;BME280;6539;49.476;8.484;2023-04-01T12:36:03;99092.88;;;13.45;65.89
12949;BME280;6539;49.476;8.484;2023-04-01T12:41:48;99099.72;;;13.31;65.70
12949;BME280;6539;49.476;8.484;2023-04-01T12:59:31;99102.41;;;13.62;66.65
12949;BME280;6539;49.476;8.484;2023-04-01T13:11:45;99115.16;;;13.77;66.44
12949;BME280;6539;49.476;8.484;2023-04-01T13:15:09;99119.00;;;13.80;66.22
12949;BME280;6539;49.476;8.484;2023-04-01T13:24:16;99123.72;;;13.80;66.29
12949;BME280;6539;49.476;8.484;2023-04-01T13:30:27;99130.44;;;13.69;65.60
12949;BME280;6539;49.476;8.484;2023-04-01T13:36:19;99139.03;;;13.71;65.80
12949;BME280;6539;49.476;8.484;2023-04-01T13:48:18;99135.06;;;13.82;64.67
12949;BME280;6539;49.476;8.484;2023-04-01T13:51:22;99145.19;;;13.75;65.33
12949;BME280;6539;49.476;8.484;2023-04-01T14:00:38;99143.91;;;13.67;65.78
12949;BME280;6539;49.476;8.484;2023-04-01T14:12:22;99154.03;;;13.61;65.96
12949;BME280;6539;49.476;8.484;2023-04-01T14:17:56;99156.97;;;13.67;65.50
12949;BME280;6539;49.476;8.484;2023-04-01T14:20:53;99166.75;;;13.68;66.29
12949;BME280;6539;49.476;8.484;2023-04-01T14:38:24;99175.16;;;13.55;65.63
12949;BME280;6539;49.476;8.484;2023-04-01T14:44:05;99180.78;;;13.43;65.66
12949;BME280;6539;49.476;8.484;2023-04-01T14:49:49;99185.22;;;13.40;65.71
12949;BME280;6539;49.476;8.484;2023-04-01T14:52:30;99184.31;;;13.52;65.71
12949;BME280;6539;49.476;8.484;2023-04-01T14:54:58;99190.13;;;13.45;65.57
12949;BME280;6539;49.476;8.484;2023-04-01T14:57:28;99184.00;;;13.50;65.74
12949;BME280;6539;49.476;8.484;2023-04-01T15:00:15;99197.44;;;13.39;65.98
12949;BME280;6539;49.476;8.484;2023-04-01T15:03:14;99205.44;;;13.46;65.78
12949;BME280;6539;49.476;8.484;2023-04-01T15:06:23;99201.31;;;13.51;65.36
12949;BME280;6539;49.476;8.484;2023-04-01T15:12:04;99215.84;;;13.42;65.63
12949;BME280;6539;49.476;8.484;2023-04-01T15:20:21;99206.84;;;13.51;64.75
12949;BME280;6539;49.476;8.484;2023-04-01T15:45:10;99221.28;;;13.64;63.21
12949;BME280;6539;49.476;8.484;2023-04-01T15:47:58;99215.44;;;13.53;62.90
12949;BME280;6539;49.476;8.484;2023-04-01T15:57:02;99230.47;;;13.61;63.36
12949;BME280;6539;49.476;8.484;2023-04-01T16:00:29;99233.06;;;13.55;62.74
12949;BME280;6539;49.476;8.484;2023-04-01T16:06:13;99251.47;;;13.58;63.25
12949;BME280;6539;49.476;8.484;2023-04-01T16:14:31;99252.66;;;13.57;63.91
12949;BME280;6539;49.476;8.484;2023-04-01T16:17:45;99245.44;;;13.51;63.83
12949;BME280;6539;49.476;8.484;2023-04-01T16:20:23;99254.59;;;13.48;64.23
12949;BME280;6539;49.476;8.484;2023-04-01T16:26:50;99264.44;;;13.49;63.73
12949;BME280;6539;49.476;8.484;2023-04-01T16:32:38;99263.03;;;14.60;70.60
12949;BME280;6539;49.476;8.484;2023-04-01T16:43:40;99259.28;;;15.45;62.31
12949;BME280;6539;49.476;8.484;2023-04-01T16:46:51;99269.78;;;15.13;58.08
12949;BME280;6539;49.476;8.484;2023-04-01T16:49:50;99276.88;;;14.69;57.55
12949;BME280;6539;49.476;8.484;2023-04-01T16:55:21;99276.47;;;14.22;59.41
12949;BME280;6539;49.476;8.484;2023-04-01T16:57:57;99279.97;;;14.13;59.82
12949;BME280;6539;49.476;8.484;2023-04-01T17:01:00;99292.06;;;14.07;59.51
12949;BME280;6539;49.476;8.484;2023-04-01T17:03:40;99299.06;;;13.90;60.13
12949;BME280;6539;49.476;8.484;2023-04-01T17:07:05;99294.75;;;13.80;60.60
12949;BME280;6539;49.476;8.484;2023-04-01T17:12:38;99308.66;;;13.67;61.07
12949;BME280;6539;49.476;8.484;2023-04-01T17:15:51;99305.56;;;13.65;60.59
12949;BME280;6539;49.476;8.484;2023-04-01T17:24:30;99308.91;;;13.60;60.35
12949;BME280;6539;49.476;8.484;2023-04-01T17:33:16;99329.25;;;13.53;59.99
12949;BME280;6539;49.476;8.484;2023-04-01T17:39:10;99323.41;;;13.51;60.42
12949;BME280;6539;49.476;8.484;2023-04-01T17:51:12;99350.16;;;13.42;61.33
12949;BME280;6539;49.476;8.484;2023-04-01T17:59:36;99355.03;;;13.38;61.46
12949;BME280;6539;49.476;8.484;2023-04-01T18:08:31;99371.31;;;13.23;62.51
12949;BME280;6539;49.476;8.484;2023-04-01T18:22:28;99387.00;;;13.14;62.30
12949;BME280;6539;49.476;8.484;2023-04-01T18:25:12;99400.59;;;13.08;62.69
12949;BME280;6539;49.476;8.484;2023-04-01T18:30:57;99399.66;;;13.11;63.87
12949;BME280;6539;49.476;8.484;2023-04-01T18:33:41;99416.00;;;13.06;64.36
12949;BME280;6539;49.476;8.484;2023-04-01T18:39:18;99424.81;;;13.13;63.97
12949;BME280;6539;49.476;8.484;2023-04-01T18:45:08;99435.97;;;12.97;64.66
12949;BME280;6539;49.476;8.484;2023-04-01T18:47:46;99433.06;;;13.00;64.55
12949;BME280;6539;49.476;8.484;2023-04-01T18:56:38;99445.88;;;13.07;64.67
12949;BME280;6539;49.476;8.484;2023-04-01T18:59:21;99452.94;;;13.08;64.81
12949;BME280;6539;49.476;8.484;2023-04-01T19:05:07;99467.81;;;13.11;64.57
12949;BME280;6539;49.476;8.484;2023-04-01T19:07:51;99470.00;;;13.03;64.63
12949;BME280;6539;49.476;8.484;2023-04-01T19:10:48;99473.88;;;13.06;65.01
12949;BME280;6539;49.476;8.484;2023-04-01T19:28:44;99475.31;;;12.72;66.19
12949;BME280;6539;49.476;8.484;2023-04-01T19:31:24;99468.28;;;12.71;65.82
12949;BME280;6539;49.476;8.484;2023-04-01T19:46:17;99471.81;;;12.72;65.67
12949;BME280;6539;49.476;8.484;2023-04-01T19:49:11;99475.44;;;12.69;66.09
12949;BME280;6539;49.476;8.484;2023-04-01T19:52:01;99479.63;;;12.73;66.65
12949;BME280;6539;49.476;8.484;2023-04-01T19:57:48;99489.66;;;12.67;67.08
12949;BME280;6539;49.476;8.484;2023-04-01T20:00:51;99489.22;;;12.69;66.78
12949;BME280;6539;49.476;8.484;2023-04-01T20:07:05;99498.44;;;12.75;67.27
12949;BME280;6539;49.476;8.484;2023-04-01T20:13:17;99506.28;;;12.76;67.00
12949;BME280;6539;49.476;8.484;2023-04-01T20:16:07;99500.88;;;12.73;66.88
12949;BME280;6539;49.476;8.484;2023-04-01T20:18:41;99518.06;;;12.77;66.96
12949;BME280;6539;49.476;8.484;2023-04-01T20:21:49;99520.06;;;12.76;66.21
12949;BME280;6539;49.476;8.484;2023-04-01T20:24:41;99519.03;;;12.70;66.31
12949;BME280;6539;49.476;8.484;2023-04-01T20:27:23;99530.19;;;12.67;66.61
12949;BME280;6539;49.476;8.484;2023-04-01T20:41:49;99533.47;;;12.62;66.96
12949;BME280;6539;49.476;8.484;2023-04-01T20:47:50;99535.69;;;12.54;67.98
12949;BME280;6539;49.476;8.484;2023-04-01T20:51:03;99540.94;;;12.49;68.64
12949;BME280;6539;49.476;8.484;2023-04-01T21:07:38;99552.59;;;12.27;70.77
12949;BME280;6539;49.476;8.484;2023-04-01T21:12:53;99557.56;;;12.33;70.87
12949;BME280;6539;49.476;8.484;2023-04-01T21:15:42;99559.00;;;12.24;71.06
12949;BME280;6539;49.476;8.484;2023-04-01T21:35:30;99582.72;;;12.18;71.28
12949;BME280;6539;49.476;8.484;2023-04-01T21:46:32;99595.72;;;12.18;71.72
12949;BME280;6539;49.476;8.484;2023-04-01T22:10:09;99621.94;;;12.22;71.93
12949;BME280;6539;49.476;8.484;2023-04-01T22:12:52;99614.44;;;12.23;71.51
12949;BME280;6539;49.476;8.484;2023-04-01T22:15:48;99629.25;;;12.13;71.85
12949;BME280;6539;49.476;8.484;2023-04-01T22:18:32;99619.03;;;12.13;71.84
12949;BME280;6539;49.476;8.484;2023-04-01T22:21:10;99624.53;;;12.13;72.06
12949;BME280;6539;49.476;8.484;2023-04-01T22:24:06;99623.91;;;12.22;71.64
12949;BME280;6539;49.476;8.484;2023-04-01T22:27:03;99626.91;;;12.27;71.14
12949;BME280;6539;49.476;8.484;2023-04-01T22:32:28;99629.97;;;12.30;70.93
12949;BME280;6539;49.476;8.484;2023-04-01T22:41:01;99624.59;;;12.26;70.87
12949;BME280;6539;49.476;8.484;2023-04-01T22:43:39;99638.22;;;12.30;71.30
12949;BME280;6539;49.476;8.484;2023-04-01T22:52:04;99642.50;;;12.18;71.60
12949;BME280;6539;49.476;8.484;2023-04-01T22:54:41;99645.59;;;12.20;71.72
12949;BME280;6539;49.476;8.484;2023-04-01T23:00:20;99654.97;;;12.22;71.61
12949;BME280;6539;49.476;8.484;2023-04-01T23:05:55;99654.41;;;12.27;71.52
12949;BME280;6539;49.476;8.484;2023-04-01T23:11:28;99665.09;;;12.25;71.46
12949;BME280;6539;49.476;8.484;2023-04-01T23:17:12;99665.41;;;12.27;72.89
12949;BME280;6539;49.476;8.484;2023-04-01T23:26:12;99685.66;;;12.21;75.09
12949;BME280;6539;49.476;8.484;2023-04-01T23:36:54;99692.09;;;12.14;76.15
12949;BME280;6539;49.476;8.484;2023-04-01T23:42:13;99698.16;;;12.09;77.41
12949;BME280;6539;49.476;8.484;2023-04-01T23:44:42;99703.31;;;12.07;77.86
12949;BME280;6539;49.476;8.484;2023-04-01T23:47:17;99708.88;;;12.04;77.91
12949;BME280;6539;49.476;8.484;2023-04-01T23:50:00;99709.84;;;11.97;78.18
12949;BME280;6539;49.476;8.484;2023-04-01T23:52:34;99709.78;;;12.01;78.68
12949;BME280;6539;49.476;8.484;2023-04-01T23:55:23;99710.53;;;12.01;78.69
12949;BME280;6539;49.476;8.484;2023-04-01T23:58:21;99716.47;;;12.00;78.32
